CCGS Limnos — CG2350 — position and weather

sailwx.info

Track history (hours):
 
Tides and Currents Weather Stations Pressure Air Temp Water Temp Dewpoint Dewpoint Depression Visibility Wind Speed Wind Dir Waves Ship Positions

Oceanographic research ship CCGS Limnos (Canada)

Detailed information on ship capabilities available from University of Delaware's Ocean Information Center.

Last reported at 2020-Jul-04 12:30 UTC. Time now 2020-Jul-15 17:32 UTC.
Position N 42°53' W 079°15'.
Warning: this ship's position is 11 days out of date.

Length 44.81 m; beam 9.75 m; draft 2.6 m.

Type: SAR. MMSI: 316001434.

Date/timePositionNaut miles runAvg speedWind from/ knotsBaromVisibWave heightAir tempDewpointWater temp
2020-Jul-04 12:30N 42°53' W 079°15'1 0.9
2020-Jul-04 11:06N 42°52' W 079°14'0 0.0
2020-Jul-04 02:42N 42°52' W 079°14'0 0.0
2020-Jul-04 01:36N 42°52' W 079°14'0 0.0
2020-Jul-03 20:36N 42°52' W 079°14'1 0.3
2020-Jul-03 18:00N 42°52' W 079°15'1 0.5
2020-Jul-03 16:30N 42°53' W 079°15'0 0.1
2020-Jul-03 15:34N 42°53' W 079°15'0 0.0
2020-Jul-03 15:16N 42°53' W 079°15'0 0.0
2020-Jul-03 14:22N 42°53' W 079°15'0 0.0
2020-Jul-03 13:58N 42°53' W 079°15'0 0.0
2020-Jul-03 13:28N 42°53' W 079°15'0 0.0
2020-Jul-03 10:28N 42°53' W 079°15'0 0.0
2020-Jul-03 09:58N 42°53' W 079°15'0 0.0
2020-Jul-03 09:28N 42°53' W 079°15'0 0.0
2020-Jul-03 08:58N 42°53' W 079°15'0 0.0
2020-Jul-03 08:22N 42°53' W 079°15'0 0.0
2020-Jul-03 06:28N 42°53' W 079°15'0 0.0
2020-Jul-03 03:58N 42°53' W 079°15'0 0.0
2020-Jul-03 02:58N 42°53' W 079°15'0 0.0
2020-Jul-03 02:22N 42°53' W 079°15'  
2020-Jun-26 15:45N 43°00' W 079°13'7 3.8
2020-Jun-26 14:00N 42°54' W 079°15'0 0.4
2020-Jun-26 13:00N 42°54' W 079°15'1 1.4
2020-Jun-26 12:28N 42°53' W 079°15'0 0.0
2020-Jun-26 11:57N 42°53' W 079°15'0 0.0
2020-Jun-26 11:29N 42°53' W 079°15'0 0.0
2020-Jun-26 10:59N 42°53' W 079°15'0 0.0
2020-Jun-26 08:00N 42°53' W 079°15'0 0.0
2020-Jun-26 07:30N 42°53' W 079°15'0 0.0
2020-Jun-26 07:00N 42°53' W 079°15'0 0.0
2020-Jun-26 06:00N 42°53' W 079°15'0 0.0
2020-Jun-26 05:30N 42°53' W 079°15'0 0.0
2020-Jun-26 02:30N 42°53' W 079°15'0 0.0
2020-Jun-26 00:30N 42°53' W 079°15'21 4.6
2020-Jun-25 20:00N 42°45' W 079°41'10 9.5
2020-Jun-25 18:58N 42°43' W 079°54'14 5.6
2020-Jun-25 16:30N 42°47' W 080°12'  
Track history (hours):
 
Tides and Currents Weather Stations Pressure Air Temp Water Temp Dewpoint Dewpoint Depression Visibility Wind Speed Wind Dir Waves Ship Positions

Oceanographic research ship CCGS Limnos (Canada)

Detailed information on ship capabilities available from University of Delaware's Ocean Information Center.

Last reported at 2020-Jul-04 12:30 UTC. Time now 2020-Jul-15 17:32 UTC.
Position N 42°53' W 079°15'.
Warning: this ship's position is 11 days out of date.

Length 44.81 m; beam 9.75 m; draft 2.6 m.

Type: SAR. MMSI: 316001434.

Date/timePositionNaut miles runAvg speedWind from/ knotsBaromVisibWave heightAir tempDewpointWater temp
2020-Jul-04 12:30N 42°53' W 079°15'1 0.9
2020-Jul-04 11:06N 42°52' W 079°14'0 0.0
2020-Jul-04 02:42N 42°52' W 079°14'0 0.0
2020-Jul-04 01:36N 42°52' W 079°14'0 0.0
2020-Jul-03 20:36N 42°52' W 079°14'1 0.3
2020-Jul-03 18:00N 42°52' W 079°15'1 0.5
2020-Jul-03 16:30N 42°53' W 079°15'0 0.1
2020-Jul-03 15:34N 42°53' W 079°15'0 0.0
2020-Jul-03 15:16N 42°53' W 079°15'0 0.0
2020-Jul-03 14:22N 42°53' W 079°15'0 0.0
2020-Jul-03 13:58N 42°53' W 079°15'0 0.0
2020-Jul-03 13:28N 42°53' W 079°15'0 0.0
2020-Jul-03 10:28N 42°53' W 079°15'0 0.0
2020-Jul-03 09:58N 42°53' W 079°15'0 0.0
2020-Jul-03 09:28N 42°53' W 079°15'0 0.0
2020-Jul-03 08:58N 42°53' W 079°15'0 0.0
2020-Jul-03 08:22N 42°53' W 079°15'0 0.0
2020-Jul-03 06:28N 42°53' W 079°15'0 0.0
2020-Jul-03 03:58N 42°53' W 079°15'0 0.0
2020-Jul-03 02:58N 42°53' W 079°15'0 0.0
2020-Jul-03 02:22N 42°53' W 079°15'  
2020-Jun-26 15:45N 43°00' W 079°13'7 3.8
2020-Jun-26 14:00N 42°54' W 079°15'0 0.4
2020-Jun-26 13:00N 42°54' W 079°15'1 1.4
2020-Jun-26 12:28N 42°53' W 079°15'0 0.0
2020-Jun-26 11:57N 42°53' W 079°15'0 0.0
2020-Jun-26 11:29N 42°53' W 079°15'0 0.0
2020-Jun-26 10:59N 42°53' W 079°15'0 0.0
2020-Jun-26 08:00N 42°53' W 079°15'0 0.0
2020-Jun-26 07:30N 42°53' W 079°15'0 0.0
2020-Jun-26 07:00N 42°53' W 079°15'0 0.0
2020-Jun-26 06:00N 42°53' W 079°15'0 0.0
2020-Jun-26 05:30N 42°53' W 079°15'0 0.0
2020-Jun-26 02:30N 42°53' W 079°15'0 0.0
2020-Jun-26 00:30N 42°53' W 079°15'21 4.6
2020-Jun-25 20:00N 42°45' W 079°41'10 9.5
2020-Jun-25 18:58N 42°43' W 079°54'14 5.6
2020-Jun-25 16:30N 42°47' W 080°12'  

Dump ship's entire track history